sensor_id;sensor_type;location;lat;lon;timestamp;pressure;altitude;pressure_sealevel;temperature;humidity
79138;BME280;68544;45.566;10.238;2024-02-21T00:01:24;100677.03;;;11.28;76.33
79138;BME280;68544;45.566;10.238;2024-02-21T00:03:49;100683.06;;;10.99;79.14
79138;BME280;68544;45.566;10.238;2024-02-21T00:06:15;100659.28;;;10.86;79.35
79138;BME280;68544;45.566;10.238;2024-02-21T00:08:40;100652.72;;;10.73;79.02
79138;BME280;68544;45.566;10.238;2024-02-21T00:11:06;100687.69;;;11.21;76.89
79138;BME280;68544;45.566;10.238;2024-02-21T00:13:31;100660.56;;;11.06;74.72
79138;BME280;68544;45.566;10.238;2024-02-21T00:15:57;100688.66;;;10.89;76.80
79138;BME280;68544;45.566;10.238;2024-02-21T00:18:22;100693.56;;;10.86;77.08
79138;BME280;68544;45.566;10.238;2024-02-21T00:20:48;100679.53;;;10.90;76.35
79138;BME280;68544;45.566;10.238;2024-02-21T00:23:13;100663.69;;;10.71;77.14
79138;BME280;68544;45.566;10.238;2024-02-21T00:25:38;100668.09;;;10.64;76.95
79138;BME280;68544;45.566;10.238;2024-02-21T00:28:04;100671.81;;;10.71;76.87
79138;BME280;68544;45.566;10.238;2024-02-21T00:30:31;100676.03;;;10.66;75.50
79138;BME280;68544;45.566;10.238;2024-02-21T00:32:56;100674.88;;;10.52;74.53
79138;BME280;68544;45.566;10.238;2024-02-21T00:35:22;100669.47;;;10.68;72.57
79138;BME280;68544;45.566;10.238;2024-02-21T00:37:47;100668.09;;;10.72;71.30
79138;BME280;68544;45.566;10.238;2024-02-21T00:40:12;100670.97;;;10.79;69.79
79138;BME280;68544;45.566;10.238;2024-02-21T00:42:38;100673.41;;;11.13;68.26
79138;BME280;68544;45.566;10.238;2024-02-21T00:45:04;100683.13;;;11.22;66.45
79138;BME280;68544;45.566;10.238;2024-02-21T00:47:29;100672.69;;;11.10;65.89
79138;BME280;68544;45.566;10.238;2024-02-21T00:49:54;100664.72;;;10.70;68.31
79138;BME280;68544;45.566;10.238;2024-02-21T00:52:20;100676.38;;;10.63;70.05
79138;BME280;68544;45.566;10.238;2024-02-21T00:54:45;100663.09;;;10.45;71.82
79138;BME280;68544;45.566;10.238;2024-02-21T00:57:11;100675.34;;;10.72;72.63
79138;BME280;68544;45.566;10.238;2024-02-21T00:59:37;100669.72;;;10.97;73.21
79138;BME280;68544;45.566;10.238;2024-02-21T01:02:02;100672.09;;;10.92;75.31
79138;BME280;68544;45.566;10.238;2024-02-21T01:04:28;100674.34;;;10.81;68.46
79138;BME280;68544;45.566;10.238;2024-02-21T01:06:53;100663.69;;;10.71;67.75
79138;BME280;68544;45.566;10.238;2024-02-21T01:09:18;100656.31;;;10.49;68.14
79138;BME280;68544;45.566;10.238;2024-02-21T01:11:44;100656.44;;;10.72;67.51
79138;BME280;68544;45.566;10.238;2024-02-21T01:14:09;100644.00;;;10.47;67.07
79138;BME280;68544;45.566;10.238;2024-02-21T01:16:36;100665.72;;;10.69;66.86
79138;BME280;68544;45.566;10.238;2024-02-21T01:19:01;100670.41;;;10.83;66.16
79138;BME280;68544;45.566;10.238;2024-02-21T01:21:26;100667.16;;;10.96;64.50
79138;BME280;68544;45.566;10.238;2024-02-21T01:23:52;100649.03;;;10.66;65.27
79138;BME280;68544;45.566;10.238;2024-02-21T01:26:17;100646.31;;;10.74;66.46
79138;BME280;68544;45.566;10.238;2024-02-21T01:28:43;100646.81;;;10.69;67.76
79138;BME280;68544;45.566;10.238;2024-02-21T01:31:08;100648.06;;;10.43;68.38
79138;BME280;68544;45.566;10.238;2024-02-21T01:33:34;100647.91;;;10.20;71.01
79138;BME280;68544;45.566;10.238;2024-02-21T01:36:04;100658.88;;;10.10;74.29
79138;BME280;68544;45.566;10.238;2024-02-21T01:38:32;100653.63;;;10.01;73.65
79138;BME280;68544;45.566;10.238;2024-02-21T01:40:57;100641.50;;;10.21;71.94
79138;BME280;68544;45.566;10.238;2024-02-21T01:43:23;100626.28;;;9.96;72.30
79138;BME280;68544;45.566;10.238;2024-02-21T01:45:50;100642.97;;;10.48;70.43
79138;BME280;68544;45.566;10.238;2024-02-21T01:48:19;100632.66;;;10.67;68.15
79138;BME280;68544;45.566;10.238;2024-02-21T01:50:52;100643.97;;;10.63;67.03
79138;BME280;68544;45.566;10.238;2024-02-21T01:53:22;100622.91;;;10.50;67.20
79138;BME280;68544;45.566;10.238;2024-02-21T01:55:48;100629.16;;;10.26;68.60
79138;BME280;68544;45.566;10.238;2024-02-21T01:58:14;100638.09;;;10.35;68.85
79138;BME280;68544;45.566;10.238;2024-02-21T02:00:41;100644.84;;;10.55;68.14
79138;BME280;68544;45.566;10.238;2024-02-21T02:03:09;100619.56;;;10.16;68.13
79138;BME280;68544;45.566;10.238;2024-02-21T02:05:35;100653.78;;;10.48;67.61
79138;BME280;68544;45.566;10.238;2024-02-21T02:08:01;100646.53;;;10.16;68.19
79138;BME280;68544;45.566;10.238;2024-02-21T02:10:26;100635.78;;;10.24;66.98
79138;BME280;68544;45.566;10.238;2024-02-21T02:12:52;100638.59;;;10.47;65.36
79138;BME280;68544;45.566;10.238;2024-02-21T02:15:17;100655.81;;;10.38;66.25
79138;BME280;68544;45.566;10.238;2024-02-21T02:17:43;100644.19;;;10.45;64.94
79138;BME280;68544;45.566;10.238;2024-02-21T02:20:08;100640.31;;;10.15;65.98
79138;BME280;68544;45.566;10.238;2024-02-21T02:22:35;100643.50;;;10.27;66.83
79138;BME280;68544;45.566;10.238;2024-02-21T02:25:03;100616.53;;;10.11;67.55
79138;BME280;68544;45.566;10.238;2024-02-21T02:27:28;100630.34;;;10.16;68.38
79138;BME280;68544;45.566;10.238;2024-02-21T02:29:53;100616.53;;;10.11;68.26
79138;BME280;68544;45.566;10.238;2024-02-21T02:32:19;100634.06;;;10.31;67.13
79138;BME280;68544;45.566;10.238;2024-02-21T02:34:44;100630.53;;;10.14;67.39
79138;BME280;68544;45.566;10.238;2024-02-21T02:37:10;100639.97;;;10.18;67.70
79138;BME280;68544;45.566;10.238;2024-02-21T02:39:35;100611.13;;;10.03;67.76
79138;BME280;68544;45.566;10.238;2024-02-21T02:42:01;100627.63;;;9.76;70.48
79138;BME280;68544;45.566;10.238;2024-02-21T02:44:27;100623.41;;;9.81;70.75
79138;BME280;68544;45.566;10.238;2024-02-21T02:46:52;100640.44;;;9.98;70.40
79138;BME280;68544;45.566;10.238;2024-02-21T02:49:18;100622.06;;;10.01;69.53
79138;BME280;68544;45.566;10.238;2024-02-21T02:51:43;100618.88;;;9.74;70.79
79138;BME280;68544;45.566;10.238;2024-02-21T02:54:09;100631.19;;;9.92;69.57
79138;BME280;68544;45.566;10.238;2024-02-21T02:56:35;100647.16;;;9.70;71.36
79138;BME280;68544;45.566;10.238;2024-02-21T02:59:00;100621.88;;;9.54;70.34
79138;BME280;68544;45.566;10.238;2024-02-21T03:01:25;100571.28;;;9.32;70.39
79138;BME280;68544;45.566;10.238;2024-02-21T03:03:51;100637.88;;;9.72;67.54
79138;BME280;68544;45.566;10.238;2024-02-21T03:06:16;100636.72;;;9.83;67.27
79138;BME280;68544;45.566;10.238;2024-02-21T03:08:42;100607.63;;;9.20;69.66
79138;BME280;68544;45.566;10.238;2024-02-21T03:11:08;100635.53;;;9.77;68.37
79138;BME280;68544;45.566;10.238;2024-02-21T03:13:33;100630.31;;;9.76;66.25
79138;BME280;68544;45.566;10.238;2024-02-21T03:15:59;100630.63;;;9.57;65.23
79138;BME280;68544;45.566;10.238;2024-02-21T03:18:24;100629.31;;;9.85;63.21
79138;BME280;68544;45.566;10.238;2024-02-21T03:20:50;100643.47;;;9.87;63.00
79138;BME280;68544;45.566;10.238;2024-02-21T03:23:15;100629.97;;;9.79;63.08
79138;BME280;68544;45.566;10.238;2024-02-21T03:25:40;100638.75;;;9.73;63.33
79138;BME280;68544;45.566;10.238;2024-02-21T03:28:06;100631.84;;;9.86;62.42
79138;BME280;68544;45.566;10.238;2024-02-21T03:30:31;100641.50;;;10.13;61.13
79138;BME280;68544;45.566;10.238;2024-02-21T03:32:57;100626.59;;;9.85;61.10
79138;BME280;68544;45.566;10.238;2024-02-21T03:35:22;100617.16;;;9.57;62.36
79138;BME280;68544;45.566;10.238;2024-02-21T03:37:51;100623.53;;;9.47;63.16
79138;BME280;68544;45.566;10.238;2024-02-21T03:40:17;100637.19;;;9.46;63.41
79138;BME280;68544;45.566;10.238;2024-02-21T03:42:42;100654.88;;;9.57;61.62
79138;BME280;68544;45.566;10.238;2024-02-21T03:45:08;100642.41;;;9.55;62.30
79138;BME280;68544;45.566;10.238;2024-02-21T03:47:33;100644.78;;;9.59;62.44
79138;BME280;68544;45.566;10.238;2024-02-21T03:49:59;100640.75;;;9.54;61.71
79138;BME280;68544;45.566;10.238;2024-02-21T03:52:24;100644.81;;;9.91;60.54
79138;BME280;68544;45.566;10.238;2024-02-21T03:54:50;100622.91;;;9.86;59.25
79138;BME280;68544;45.566;10.238;2024-02-21T03:57:15;100655.28;;;10.10;58.80
79138;BME280;68544;45.566;10.238;2024-02-21T03:59:42;100653.25;;;9.80;60.64
79138;BME280;68544;45.566;10.238;2024-02-21T04:02:07;100652.56;;;9.78;62.64
79138;BME280;68544;45.566;10.238;2024-02-21T04:04:34;100649.50;;;9.65;63.47
79138;BME280;68544;45.566;10.238;2024-02-21T04:07:02;100652.03;;;9.74;62.81
79138;BME280;68544;45.566;10.238;2024-02-21T04:09:32;100660.28;;;9.57;63.09
79138;BME280;68544;45.566;10.238;2024-02-21T04:11:57;100656.53;;;9.49;63.53
79138;BME280;68544;45.566;10.238;2024-02-21T04:14:22;100655.88;;;9.47;63.51
79138;BME280;68544;45.566;10.238;2024-02-21T04:16:48;100621.97;;;9.37;63.99
79138;BME280;68544;45.566;10.238;2024-02-21T04:19:13;100648.53;;;9.74;63.52
79138;BME280;68544;45.566;10.238;2024-02-21T04:21:38;100621.19;;;9.52;62.26
79138;BME280;68544;45.566;10.238;2024-02-21T04:24:04;100654.56;;;9.68;61.98
79138;BME280;68544;45.566;10.238;2024-02-21T04:26:30;100660.59;;;9.53;62.28
79138;BME280;68544;45.566;10.238;2024-02-21T04:28:55;100668.31;;;9.48;63.09
79138;BME280;68544;45.566;10.238;2024-02-21T04:31:21;100657.09;;;9.69;61.44
79138;BME280;68544;45.566;10.238;2024-02-21T04:33:46;100662.81;;;9.74;61.86
79138;BME280;68544;45.566;10.238;2024-02-21T04:36:11;100660.34;;;9.97;59.34
79138;BME280;68544;45.566;10.238;2024-02-21T04:38:37;100678.53;;;9.87;59.44
79138;BME280;68544;45.566;10.238;2024-02-21T04:41:04;100663.28;;;9.45;59.34
79138;BME280;68544;45.566;10.238;2024-02-21T04:43:29;100661.44;;;9.54;59.16
79138;BME280;68544;45.566;10.238;2024-02-21T04:45:54;100669.44;;;9.80;58.57
79138;BME280;68544;45.566;10.238;2024-02-21T04:48:20;100656.91;;;9.54;59.28
79138;BME280;68544;45.566;10.238;2024-02-21T04:50:46;100670.69;;;9.43;60.44
79138;BME280;68544;45.566;10.238;2024-02-21T04:53:11;100668.31;;;9.40;60.50
79138;BME280;68544;45.566;10.238;2024-02-21T04:55:36;100672.03;;;9.47;61.61
79138;BME280;68544;45.566;10.238;2024-02-21T04:58:02;100649.81;;;9.45;59.74
79138;BME280;68544;45.566;10.238;2024-02-21T05:00:27;100660.59;;;9.53;59.15
79138;BME280;68544;45.566;10.238;2024-02-21T05:02:53;100643.00;;;9.25;59.25
79138;BME280;68544;45.566;10.238;2024-02-21T05:05:18;100651.78;;;9.27;58.94
79138;BME280;68544;45.566;10.238;2024-02-21T05:07:43;100654.63;;;9.34;60.06
79138;BME280;68544;45.566;10.238;2024-02-21T05:10:09;100623.00;;;8.94;61.02
79138;BME280;68544;45.566;10.238;2024-02-21T05:12:35;100650.78;;;9.44;60.24
79138;BME280;68544;45.566;10.238;2024-02-21T05:15:00;100639.72;;;9.06;61.65
79138;BME280;68544;45.566;10.238;2024-02-21T05:17:25;100638.69;;;9.07;61.64
79138;BME280;68544;45.566;10.238;2024-02-21T05:19:51;100629.19;;;9.28;61.04
79138;BME280;68544;45.566;10.238;2024-02-21T05:22:16;100630.28;;;9.51;59.49
79138;BME280;68544;45.566;10.238;2024-02-21T05:24:41;100631.88;;;9.20;60.36
79138;BME280;68544;45.566;10.238;2024-02-21T05:27:07;100628.41;;;9.44;59.49
79138;BME280;68544;45.566;10.238;2024-02-21T05:29:33;100605.63;;;9.30;59.08
79138;BME280;68544;45.566;10.238;2024-02-21T05:31:59;100621.19;;;9.52;59.27
79138;BME280;68544;45.566;10.238;2024-02-21T05:34:25;100628.31;;;9.86;58.22
79138;BME280;68544;45.566;10.238;2024-02-21T05:36:53;100616.81;;;9.60;57.69
79138;BME280;68544;45.566;10.238;2024-02-21T05:39:18;100625.53;;;9.45;58.11
79138;BME280;68544;45.566;10.238;2024-02-21T05:41:44;100613.72;;;9.38;57.85
79138;BME280;68544;45.566;10.238;2024-02-21T05:44:10;100648.25;;;9.35;58.72
79138;BME280;68544;45.566;10.238;2024-02-21T05:46:36;100646.56;;;8.92;59.84
79138;BME280;68544;45.566;10.238;2024-02-21T05:49:01;100644.72;;;9.34;59.24
79138;BME280;68544;45.566;10.238;2024-02-21T05:51:27;100624.28;;;9.16;59.42
79138;BME280;68544;45.566;10.238;2024-02-21T05:53:52;100652.47;;;9.37;58.29
79138;BME280;68544;45.566;10.238;2024-02-21T05:56:17;100605.69;;;9.05;58.02
79138;BME280;68544;45.566;10.238;2024-02-21T05:58:43;100643.44;;;9.63;57.00
79138;BME280;68544;45.566;10.238;2024-02-21T06:01:09;100668.69;;;9.62;57.64
79138;BME280;68544;45.566;10.238;2024-02-21T06:03:35;100638.47;;;8.92;60.28
79138;BME280;68544;45.566;10.238;2024-02-21T06:06:01;100657.75;;;9.13;60.60
79138;BME280;68544;45.566;10.238;2024-02-21T06:08:26;100646.47;;;9.10;60.02
79138;BME280;68544;45.566;10.238;2024-02-21T06:10:52;100636.84;;;8.99;59.83
79138;BME280;68544;45.566;10.238;2024-02-21T06:13:25;100664.72;;;8.90;60.51
79138;BME280;68544;45.566;10.238;2024-02-21T06:15:50;100648.25;;;8.93;61.19
79138;BME280;68544;45.566;10.238;2024-02-21T06:18:19;100664.50;;;9.17;60.03
79138;BME280;68544;45.566;10.238;2024-02-21T06:20:45;100662.47;;;9.11;60.51
79138;BME280;68544;45.566;10.238;2024-02-21T06:23:15;100670.09;;;8.90;61.32
79138;BME280;68544;45.566;10.238;2024-02-21T06:25:42;100665.56;;;9.24;61.02
79138;BME280;68544;45.566;10.238;2024-02-21T06:28:07;100671.25;;;9.21;60.52
79138;BME280;68544;45.566;10.238;2024-02-21T06:30:33;100672.44;;;9.69;59.33
79138;BME280;68544;45.566;10.238;2024-02-21T06:32:58;100665.72;;;9.89;57.33
79138;BME280;68544;45.566;10.238;2024-02-21T06:35:24;100668.41;;;9.73;57.96
79138;BME280;68544;45.566;10.238;2024-02-21T06:37:50;100666.38;;;9.83;57.31
79138;BME280;68544;45.566;10.238;2024-02-21T06:40:22;100670.59;;;9.69;57.58
79138;BME280;68544;45.566;10.238;2024-02-21T06:42:48;100666.66;;;9.47;58.42
79138;BME280;68544;45.566;10.238;2024-02-21T06:45:13;100668.41;;;9.73;57.57
79138;BME280;68544;45.566;10.238;2024-02-21T06:47:38;100674.84;;;9.96;56.77
79138;BME280;68544;45.566;10.238;2024-02-21T06:50:04;100678.38;;;9.96;56.89
79138;BME280;68544;45.566;10.238;2024-02-21T06:52:29;100671.97;;;10.05;56.81
79138;BME280;68544;45.566;10.238;2024-02-21T06:54:56;100686.47;;;9.96;56.96
79138;BME280;68544;45.566;10.238;2024-02-21T06:57:21;100684.28;;;10.08;56.00
79138;BME280;68544;45.566;10.238;2024-02-21T06:59:47;100656.81;;;9.96;54.86
79138;BME280;68544;45.566;10.238;2024-02-21T07:02:12;100660.34;;;9.97;54.44
79138;BME280;68544;45.566;10.238;2024-02-21T07:04:37;100685.34;;;10.23;53.81
79138;BME280;68544;45.566;10.238;2024-02-21T07:07:03;100690.75;;;10.47;52.94
79138;BME280;68544;45.566;10.238;2024-02-21T07:09:28;100687.34;;;10.69;52.65
79138;BME280;68544;45.566;10.238;2024-02-21T07:11:57;100695.41;;;10.77;52.24
79138;BME280;68544;45.566;10.238;2024-02-21T07:14:22;100700.16;;;10.67;52.26
79138;BME280;68544;45.566;10.238;2024-02-21T07:16:47;100703.22;;;10.56;52.94
79138;BME280;68544;45.566;10.238;2024-02-21T07:19:13;100657.34;;;10.16;53.31
79138;BME280;68544;45.566;10.238;2024-02-21T07:21:38;100704.88;;;10.81;52.60
79138;BME280;68544;45.566;10.238;2024-02-21T07:24:06;100696.09;;;10.71;52.88
79138;BME280;68544;45.566;10.238;2024-02-21T07:26:32;100708.59;;;10.80;53.66
79138;BME280;68544;45.566;10.238;2024-02-21T07:28:58;100721.34;;;11.10;53.18
79138;BME280;68544;45.566;10.238;2024-02-21T07:31:23;100723.91;;;11.04;53.31
79138;BME280;68544;45.566;10.238;2024-02-21T07:33:49;100690.72;;;10.63;53.40
79138;BME280;68544;45.566;10.238;2024-02-21T07:36:15;100695.25;;;10.87;52.44
79138;BME280;68544;45.566;10.238;2024-02-21T07:38:40;100707.25;;;11.39;51.45
79138;BME280;68544;45.566;10.238;2024-02-21T07:41:06;100696.78;;;11.75;49.86
79138;BME280;68544;45.566;10.238;2024-02-21T07:43:32;100709.44;;;12.28;48.91
79138;BME280;68544;45.566;10.238;2024-02-21T07:45:57;100693.38;;;12.26;48.72
79138;BME280;68544;45.566;10.238;2024-02-21T07:48:22;100689.19;;;12.61;47.27
79138;BME280;68544;45.566;10.238;2024-02-21T07:50:51;100689.28;;;13.05;45.94
79138;BME280;68544;45.566;10.238;2024-02-21T07:53:17;100687.31;;;13.28;45.52
79138;BME280;68544;45.566;10.238;2024-02-21T07:55:42;100691.06;;;13.27;45.25
79138;BME280;68544;45.566;10.238;2024-02-21T07:58:07;100696.59;;;13.69;44.38
79138;BME280;68544;45.566;10.238;2024-02-21T08:00:33;100701.03;;;13.91;43.22
79138;BME280;68544;45.566;10.238;2024-02-21T08:02:58;100698.53;;;13.90;43.00
79138;BME280;68544;45.566;10.238;2024-02-21T08:05:24;100681.75;;;13.86;43.13
79138;BME280;68544;45.566;10.238;2024-02-21T08:07:49;100711.53;;;13.94;43.51
79138;BME280;68544;45.566;10.238;2024-02-21T08:10:15;100682.97;;;14.19;42.71
79138;BME280;68544;45.566;10.238;2024-02-21T08:12:40;100686.03;;;14.31;42.44
79138;BME280;68544;45.566;10.238;2024-02-21T08:15:06;100689.16;;;14.56;41.76
79138;BME280;68544;45.566;10.238;2024-02-21T08:17:33;100675.41;;;14.57;42.32
79138;BME280;68544;45.566;10.238;2024-02-21T08:19:59;100659.31;;;14.90;41.32
79138;BME280;68544;45.566;10.238;2024-02-21T08:22:24;100688.38;;;15.51;40.57
79138;BME280;68544;45.566;10.238;2024-02-21T08:24:49;100688.44;;;15.30;41.41
79138;BME280;68544;45.566;10.238;2024-02-21T08:27:15;100697.28;;;15.39;41.09
79138;BME280;68544;45.566;10.238;2024-02-21T08:29:40;100663.94;;;15.64;39.32
79138;BME280;68544;45.566;10.238;2024-02-21T08:32:06;100684.94;;;15.90;38.47
79138;BME280;68544;45.566;10.238;2024-02-21T08:34:31;100707.66;;;16.10;37.73
79138;BME280;68544;45.566;10.238;2024-02-21T08:36:59;100719.88;;;16.40;37.36
79138;BME280;68544;45.566;10.238;2024-02-21T08:39:24;100703.16;;;16.63;37.37
79138;BME280;68544;45.566;10.238;2024-02-21T08:41:50;100722.59;;;16.47;36.77
79138;BME280;68544;45.566;10.238;2024-02-21T08:44:16;100711.09;;;16.58;36.69
79138;BME280;68544;45.566;10.238;2024-02-21T08:46:41;100711.84;;;16.26;36.67
79138;BME280;68544;45.566;10.238;2024-02-21T08:49:06;100717.19;;;16.86;36.24
79138;BME280;68544;45.566;10.238;2024-02-21T08:51:32;100700.81;;;16.99;36.43
79138;BME280;68544;45.566;10.238;2024-02-21T08:53:58;100706.59;;;17.35;37.01
79138;BME280;68544;45.566;10.238;2024-02-21T08:56:23;100685.44;;;17.24;37.27
79138;BME280;68544;45.566;10.238;2024-02-21T08:58:49;100677.28;;;17.18;37.44
79138;BME280;68544;45.566;10.238;2024-02-21T09:01:15;100684.59;;;17.24;37.81
79138;BME280;68544;45.566;10.238;2024-02-21T09:03:40;100682.53;;;16.93;38.57
79138;BME280;68544;45.566;10.238;2024-02-21T09:06:06;100703.09;;;17.15;38.50
79138;BME280;68544;45.566;10.238;2024-02-21T09:08:32;100692.81;;;17.17;37.65
79138;BME280;68544;45.566;10.238;2024-02-21T09:10:59;100699.34;;;17.03;37.56
79138;BME280;68544;45.566;10.238;2024-02-21T09:13:25;100703.00;;;17.55;36.84
79138;BME280;68544;45.566;10.238;2024-02-21T09:15:50;100690.78;;;17.70;35.98
79138;BME280;68544;45.566;10.238;2024-02-21T09:18:16;100673.53;;;18.45;34.64
79138;BME280;68544;45.566;10.238;2024-02-21T09:20:42;100686.72;;;18.55;34.34
79138;BME280;68544;45.566;10.238;2024-02-21T09:23:08;100669.47;;;17.92;34.88
79138;BME280;68544;45.566;10.238;2024-02-21T09:25:33;100677.75;;;18.41;34.34
79138;BME280;68544;45.566;10.238;2024-02-21T09:28:00;100679.38;;;18.49;33.91
79138;BME280;68544;45.566;10.238;2024-02-21T09:30:26;100677.16;;;18.64;33.16
79138;BME280;68544;45.566;10.238;2024-02-21T09:32:51;100685.28;;;19.20;32.52
79138;BME280;68544;45.566;10.238;2024-02-21T09:35:17;100677.72;;;19.58;29.79
79138;BME280;68544;45.566;10.238;2024-02-21T09:37:43;100661.34;;;20.29;29.44
79138;BME280;68544;45.566;10.238;2024-02-21T09:40:08;100660.00;;;20.61;29.38
79138;BME280;68544;45.566;10.238;2024-02-21T09:42:38;100666.47;;;21.24;28.59
79138;BME280;68544;45.566;10.238;2024-02-21T09:45:08;100669.41;;;22.26;27.12
79138;BME280;68544;45.566;10.238;2024-02-21T09:47:50;100644.25;;;24.03;23.44
79138;BME280;68544;45.566;10.238;2024-02-21T09:50:17;100646.47;;;24.91;22.16
79138;BME280;68544;45.566;10.238;2024-02-21T09:52:44;100660.31;;;26.00;20.64
79138;BME280;68544;45.566;10.238;2024-02-21T09:55:10;100652.13;;;27.90;17.95
79138;BME280;68544;45.566;10.238;2024-02-21T09:57:38;100648.44;;;28.87;16.40
79138;BME280;68544;45.566;10.238;2024-02-21T10:00:04;100636.78;;;28.85;15.26
79138;BME280;68544;45.566;10.238;2024-02-21T10:02:33;100654.94;;;29.06;15.72
79138;BME280;68544;45.566;10.238;2024-02-21T10:04:58;100665.06;;;29.73;15.00
79138;BME280;68544;45.566;10.238;2024-02-21T10:07:24;100658.91;;;28.66;16.85
79138;BME280;68544;45.566;10.238;2024-02-21T10:10:00;100672.06;;;27.18;19.11
79138;BME280;68544;45.566;10.238;2024-02-21T10:12:26;100661.75;;;26.13;19.73
79138;BME280;68544;45.566;10.238;2024-02-21T10:15:03;100678.06;;;25.05;21.19
79138;BME280;68544;45.566;10.238;2024-02-21T10:17:28;100673.41;;;24.21;21.96
79138;BME280;68544;45.566;10.238;2024-02-21T10:19:54;100679.66;;;24.38;21.82
79138;BME280;68544;45.566;10.238;2024-02-21T10:22:19;100670.63;;;23.73;22.79
79138;BME280;68544;45.566;10.238;2024-02-21T10:24:46;100678.81;;;24.64;22.80
79138;BME280;68544;45.566;10.238;2024-02-21T10:27:12;100665.25;;;24.31;22.72
79138;BME280;68544;45.566;10.238;2024-02-21T10:29:37;100667.06;;;26.39;19.67
79138;BME280;68544;45.566;10.238;2024-02-21T10:32:06;100674.47;;;28.24;18.10
79138;BME280;68544;45.566;10.238;2024-02-21T10:34:32;100660.41;;;28.44;16.37
79138;BME280;68544;45.566;10.238;2024-02-21T10:37:02;100661.97;;;31.78;13.60
79138;BME280;68544;45.566;10.238;2024-02-21T10:39:28;100643.81;;;33.27;11.95
79138;BME280;68544;45.566;10.238;2024-02-21T10:41:56;100645.59;;;34.18;11.69
79138;BME280;68544;45.566;10.238;2024-02-21T10:44:25;100641.97;;;34.01;11.83
79138;BME280;68544;45.566;10.238;2024-02-21T10:46:53;100631.97;;;35.23;10.88
79138;BME280;68544;45.566;10.238;2024-02-21T10:49:23;100635.72;;;34.21;10.79
79138;BME280;68544;45.566;10.238;2024-02-21T10:51:54;100637.38;;;34.56;11.12
79138;BME280;68544;45.566;10.238;2024-02-21T10:54:44;100637.19;;;35.04;10.14
79138;BME280;68544;45.566;10.238;2024-02-21T10:57:15;100633.56;;;34.44;10.41
79138;BME280;68544;45.566;10.238;2024-02-21T10:59:44;100615.41;;;33.98;10.78
79138;BME280;68544;45.566;10.238;2024-02-21T11:02:10;100611.84;;;34.58;10.03
79138;BME280;68544;45.566;10.238;2024-02-21T11:04:35;100612.59;;;33.42;10.79
79138;BME280;68544;45.566;10.238;2024-02-21T11:07:05;100611.63;;;34.29;10.55
79138;BME280;68544;45.566;10.238;2024-02-21T11:09:31;100606.19;;;34.24;10.22
79138;BME280;68544;45.566;10.238;2024-02-21T11:12:05;100593.47;;;34.69;10.30
79138;BME280;68544;45.566;10.238;2024-02-21T11:14:30;100592.47;;;33.88;10.85
79138;BME280;68544;45.566;10.238;2024-02-21T11:17:14;100587.47;;;33.76;10.71
79138;BME280;68544;45.566;10.238;2024-02-21T11:19:40;100584.28;;;34.51;10.58
79138;BME280;68544;45.566;10.238;2024-02-21T11:22:14;100571.22;;;34.12;11.17
79138;BME280;68544;45.566;10.238;2024-02-21T11:24:39;100550.16;;;35.33;10.46
79138;BME280;68544;45.566;10.238;2024-02-21T11:29:46;100545.97;;;34.55;11.52
79138;BME280;68544;45.566;10.238;2024-02-21T11:32:14;100553.91;;;35.46;11.05
79138;BME280;68544;45.566;10.238;2024-02-21T11:34:40;100553.56;;;36.18;10.94
79138;BME280;68544;45.566;10.238;2024-02-21T11:37:15;100517.63;;;36.56;10.27
79138;BME280;68544;45.566;10.238;2024-02-21T11:39:43;100536.59;;;35.06;11.68
79138;BME280;68544;45.566;10.238;2024-02-21T11:42:09;100528.69;;;36.40;11.29
79138;BME280;68544;45.566;10.238;2024-02-21T11:44:35;100517.63;;;37.49;10.33
79138;BME280;68544;45.566;10.238;2024-02-21T11:47:03;100514.44;;;37.27;10.75
79138;BME280;68544;45.566;10.238;2024-02-21T11:49:29;100507.41;;;36.96;11.03
79138;BME280;68544;45.566;10.238;2024-02-21T11:51:59;100488.75;;;37.16;11.13
79138;BME280;68544;45.566;10.238;2024-02-21T11:54:24;100490.94;;;37.59;10.99
79138;BME280;68544;45.566;10.238;2024-02-21T11:56:50;100495.59;;;38.19;10.55
79138;BME280;68544;45.566;10.238;2024-02-21T11:59:15;100492.59;;;37.60;10.69
79138;BME280;68544;45.566;10.238;2024-02-21T12:01:40;100486.63;;;37.49;11.01
79138;BME280;68544;45.566;10.238;2024-02-21T12:04:06;100477.25;;;37.09;11.21
79138;BME280;68544;45.566;10.238;2024-02-21T12:06:35;100476.06;;;38.14;10.96
79138;BME280;68544;45.566;10.238;2024-02-21T12:09:00;100483.44;;;37.51;11.11
79138;BME280;68544;45.566;10.238;2024-02-21T12:11:26;100480.00;;;34.87;13.11
79138;BME280;68544;45.566;10.238;2024-02-21T12:14:01;100465.38;;;36.34;12.51
79138;BME280;68544;45.566;10.238;2024-02-21T12:16:29;100463.91;;;36.49;12.47
79138;BME280;68544;45.566;10.238;2024-02-21T12:18:58;100475.63;;;34.98;13.88
79138;BME280;68544;45.566;10.238;2024-02-21T12:21:29;100475.44;;;34.74;13.92
79138;BME280;68544;45.566;10.238;2024-02-21T12:23:55;100461.84;;;34.30;14.84
79138;BME280;68544;45.566;10.238;2024-02-21T12:26:21;100449.53;;;33.79;14.91
79138;BME280;68544;45.566;10.238;2024-02-21T12:28:47;100455.06;;;34.31;14.36
79138;BME280;68544;45.566;10.238;2024-02-21T12:31:13;100447.38;;;33.68;15.20
79138;BME280;68544;45.566;10.238;2024-02-21T12:33:38;100463.06;;;34.11;14.77
79138;BME280;68544;45.566;10.238;2024-02-21T12:36:04;100433.69;;;34.17;14.76
79138;BME280;68544;45.566;10.238;2024-02-21T12:38:30;100473.91;;;30.33;18.73
79138;BME280;68544;45.566;10.238;2024-02-21T12:40:55;100447.44;;;27.67;21.92